Time;durP1;ratioP1;P1;durP2;ratioP2;P2;SDS_P1;SDS_P2;PMS_P1;PMS_P2;Temp;Humidity;BMP_temperature;BMP_pressure;BME280_temperature;BME280_humidity;BME280_pressure;Samples;Min_cycle;Max_cycle;Signal;HPM_P1;HPM_P2
2022/03/20 00:01:43;;;;;;;57.67;27.58;;;-2.70;87.30;;;;;;5074672;28;20090;-92
2022/03/20 00:04:08;;;;;;;52.03;25.83;;;-2.70;87.40;;;;;;5074620;28;20020;-92
2022/03/20 00:06:34;;;;;;;43.50;23.80;;;-2.70;87.10;;;;;;5074481;28;20032;-92
2022/03/20 00:09:00;;;;;;;41.83;23.58;;;-2.70;87.70;;;;;;5074352;28;20024;-92
2022/03/20 00:11:27;;;;;;;50.35;25.23;;;-2.70;87.70;;;;;;5074510;28;20024;-92
2022/03/20 00:13:54;;;;;;;50.13;25.42;;;-2.70;87.40;;;;;;5074381;28;20066;-91
2022/03/20 00:16:21;;;;;;;55.10;26.10;;;-2.70;88.10;;;;;;5074250;28;20073;-92
2022/03/20 00:18:47;;;;;;;43.85;24.27;;;-2.80;88.10;;;;;;5074029;28;20474;-91
2022/03/20 00:21:13;;;;;;;53.63;26.60;;;-2.80;87.60;;;;;;5073350;28;20068;-92
2022/03/20 00:23:39;;;;;;;45.03;24.98;;;-2.80;87.60;;;;;;5074150;28;20031;-92
2022/03/20 00:26:05;;;;;;;44.67;24.95;;;-2.80;88.50;;;;;;5074219;28;20020;-92
2022/03/20 00:28:31;;;;;;;47.08;25.88;;;-2.70;87.90;;;;;;5073881;28;20119;-92
2022/03/20 00:30:57;;;;;;;42.70;24.58;;;-2.80;88.30;;;;;;5074043;28;20119;-92
2022/03/20 00:33:23;;;;;;;44.15;24.35;;;-2.80;87.90;;;;;;5074022;28;20044;-92
2022/03/20 00:35:49;;;;;;;39.75;23.67;;;-2.70;88.50;;;;;;5073962;28;20021;-92
2022/03/20 00:38:14;;;;;;;41.42;22.85;;;-2.70;88.60;;;;;;5073957;28;20406;-92
2022/03/20 00:40:40;;;;;;;39.70;22.70;;;-2.70;88.50;;;;;;5073822;28;20071;-92
2022/03/20 00:43:07;;;;;;;44.72;22.77;;;-2.70;88.50;;;;;;5073949;28;20052;-92
2022/03/20 00:45:33;;;;;;;37.75;19.90;;;-2.80;88.90;;;;;;5073895;28;20024;-92
2022/03/20 00:47:59;;;;;;;36.13;20.77;;;-2.70;88.90;;;;;;5073889;28;20434;-92
2022/03/20 00:50:26;;;;;;;37.47;20.63;;;-2.80;88.50;;;;;;5073872;28;20024;-92
2022/03/20 00:52:51;;;;;;;34.53;20.17;;;-2.70;88.50;;;;;;5073658;28;20016;-92
2022/03/20 00:55:17;;;;;;;34.55;19.55;;;-2.70;88.40;;;;;;5074708;28;20101;-92
2022/03/20 00:57:42;;;;;;;36.08;19.38;;;-2.80;88.90;;;;;;5073679;28;20020;-92
2022/03/20 01:00:09;;;;;;;37.35;20.65;;;-2.70;88.70;;;;;;5073345;28;20032;-92
2022/03/20 01:02:39;;;;;;;36.83;20.15;;;-2.70;89.00;;;;;;5074886;28;20029;-92
2022/03/20 01:05:05;;;;;;;38.55;20.08;;;-2.70;88.70;;;;;;5073349;28;20033;-92
2022/03/20 01:07:31;;;;;;;35.67;20.25;;;-2.70;88.90;;;;;;5073641;28;20413;-92
2022/03/20 01:09:57;;;;;;;37.97;20.50;;;-2.70;89.30;;;;;;5073691;28;20117;-92
2022/03/20 01:12:22;;;;;;;36.22;20.52;;;-2.70;89.60;;;;;;5073623;28;20020;-92
2022/03/20 01:14:48;;;;;;;35.38;19.25;;;-2.70;89.30;;;;;;5073230;28;20016;-92
2022/03/20 01:17:13;;;;;;;40.45;20.60;;;-2.70;89.30;;;;;;5073306;28;20025;-91
2022/03/20 01:19:39;;;;;;;37.13;20.55;;;-2.70;89.30;;;;;;5073072;28;20051;-92
2022/03/20 01:22:05;;;;;;;33.33;19.60;;;-2.60;90.00;;;;;;5073336;28;20505;-93
2022/03/20 01:24:30;;;;;;;30.80;20.23;;;-2.60;89.70;;;;;;5073208;28;20035;-92
2022/03/20 01:26:56;;;;;;;33.05;18.60;;;-2.60;89.50;;;;;;5073186;28;20051;-92
2022/03/20 01:29:22;;;;;;;38.63;20.00;;;-2.60;89.30;;;;;;5073408;28;20024;-92
2022/03/20 01:31:49;;;;;;;32.13;17.55;;;-2.60;89.70;;;;;;5073076;28;20025;-92
2022/03/20 01:34:15;;;;;;;36.45;18.23;;;-2.60;89.20;;;;;;5073163;28;20028;-92
2022/03/20 01:36:41;;;;;;;36.88;18.35;;;-2.50;89.40;;;;;;5073118;28;20024;-92
2022/03/20 01:39:08;;;;;;;32.10;17.10;;;-2.50;89.20;;;;;;5073150;28;20016;-92
2022/03/20 01:41:33;;;;;;;35.92;17.42;;;-2.50;87.50;;;;;;5073330;28;20017;-92
2022/03/20 01:44:01;;;;;;;29.58;16.33;;;-2.40;85.90;;;;;;5073002;28;20028;-92
2022/03/20 01:46:29;;;;;;;34.40;16.17;;;-2.30;86.30;;;;;;5073033;28;20021;-93
2022/03/20 01:48:55;;;;;;;35.90;18.48;;;-2.20;85.40;;;;;;5073459;28;20021;-93
2022/03/20 01:52:10;;;;;;;29.52;17.17;;;-2.10;85.20;;;;;;5073495;28;20032;-92
2022/03/20 01:54:07;;;;;;;34.10;17.88;;;-2.10;85.20;;;;;;5074207;28;20030;-92
2022/03/20 01:56:33;;;;;;;34.47;19.15;;;-2.00;85.80;;;;;;5073124;28;20021;-92
2022/03/20 01:59:03;;;;;;;36.33;17.20;;;-2.00;86.60;;;;;;5073177;28;20021;-93
2022/03/20 02:01:29;;;;;;;34.00;18.23;;;-2.10;86.50;;;;;;5072728;28;20024;-92
2022/03/20 02:03:55;;;;;;;34.58;18.13;;;-2.10;86.30;;;;;;5073447;28;20032;-92
2022/03/20 02:06:22;;;;;;;33.13;17.30;;;-2.10;86.70;;;;;;5072808;28;20027;-92
2022/03/20 02:08:48;;;;;;;34.22;19.38;;;-2.10;86.50;;;;;;5072934;28;20020;-92
2022/03/20 02:11:14;;;;;;;33.75;17.90;;;-2.20;87.20;;;;;;5072742;28;20116;-93
2022/03/20 02:13:40;;;;;;;40.45;20.60;;;-2.20;87.10;;;;;;5073002;28;20059;-92
2022/03/20 02:16:06;;;;;;;38.75;19.63;;;-2.20;87.00;;;;;;5072853;28;20425;-92
2022/03/20 02:18:32;;;;;;;37.53;20.08;;;-2.20;86.90;;;;;;5072623;28;20075;-92
2022/03/20 02:21:02;;;;;;;33.50;18.80;;;-2.30;87.50;;;;;;5072747;28;20036;-92
2022/03/20 02:23:27;;;;;;;37.05;19.63;;;-2.20;87.30;;;;;;5072751;28;20073;-93
2022/03/20 02:25:54;;;;;;;34.83;18.83;;;-2.30;87.00;;;;;;5072622;28;20033;-92
2022/03/20 02:28:19;;;;;;;32.40;18.08;;;-2.30;87.70;;;;;;5072686;28;20055;-91
2022/03/20 02:30:46;;;;;;;37.63;20.23;;;-2.30;87.90;;;;;;5072700;28;20056;-92
2022/03/20 02:33:13;;;;;;;33.70;18.55;;;-2.40;87.50;;;;;;5072760;28;20025;-92
2022/03/20 02:35:40;;;;;;;32.53;18.50;;;-2.40;87.90;;;;;;5073034;28;20017;-92
2022/03/20 02:38:10;;;;;;;35.13;19.15;;;-2.40;87.70;;;;;;5072384;28;20069;-92
2022/03/20 02:40:36;;;;;;;35.10;18.45;;;-2.50;88.20;;;;;;5072894;28;20387;-92
2022/03/20 02:43:05;;;;;;;29.75;17.13;;;-2.50;88.70;;;;;;5073029;28;20100;-92
2022/03/20 02:45:31;;;;;;;34.13;19.08;;;-2.50;88.40;;;;;;5076312;28;20024;-92
2022/03/20 02:48:04;;;;;;;35.97;19.48;;;-2.50;88.70;;;;;;5076127;28;20115;-92
2022/03/20 02:50:32;;;;;;;37.05;19.52;;;-2.60;89.20;;;;;;5076350;28;20028;-92
2022/03/20 02:52:59;;;;;;;32.72;17.27;;;-2.60;89.50;;;;;;5076264;28;20016;-92
2022/03/20 02:55:37;;;;;;;34.35;19.55;;;-2.60;89.70;;;;;;5075829;28;20016;-92
2022/03/20 02:58:05;;;;;;;31.08;18.08;;;-2.60;90.10;;;;;;5075700;28;20489;-92
2022/03/20 03:00:33;;;;;;;35.90;19.35;;;-2.60;89.90;;;;;;5075832;28;20042;-92
2022/03/20 03:03:01;;;;;;;33.42;19.13;;;-2.70;89.70;;;;;;5075833;28;20031;-92
2022/03/20 03:05:29;;;;;;;33.97;19.30;;;-2.70;89.50;;;;;;5075622;28;20429;-91
2022/03/20 03:10:56;;;;;;;34.42;18.33;;;-2.70;90.10;;;;;;5076846;28;20108;-91
2022/03/20 03:13:41;;;;;;;;;;;-2.80;90.20;;;;;;5076258;28;20111;-92
2022/03/20 03:16:09;;;;;;;39.65;19.48;;;-2.80;90.60;;;;;;5074880;28;20004;-92
2022/03/20 03:18:37;;;;;;;35.55;19.38;;;-2.80;90.30;;;;;;5075226;28;20045;-92
2022/03/20 03:21:03;;;;;;;37.85;19.70;;;-2.80;89.80;;;;;;5075287;28;20033;-92
2022/03/20 03:23:30;;;;;;;37.00;20.38;;;-2.80;90.10;;;;;;5075591;28;20119;-92
2022/03/20 03:25:57;;;;;;;39.00;20.73;;;-2.80;90.40;;;;;;5075397;28;20025;-90
2022/03/20 03:28:34;;;;;;;39.50;20.55;;;-2.80;90.20;;;;;;5075166;28;20094;-93
2022/03/20 03:31:00;;;;;;;39.22;20.48;;;-2.90;90.50;;;;;;5075756;28;20032;-92
2022/03/20 03:33:26;;;;;;;34.83;19.63;;;-2.90;90.50;;;;;;5075838;28;20031;-92
2022/03/20 03:35:54;;;;;;;41.22;21.20;;;-2.90;90.50;;;;;;5075203;28;20029;-92
2022/03/20 03:38:22;;;;;;;39.65;20.98;;;-3.00;90.40;;;;;;5075172;28;20017;-91
2022/03/20 03:40:49;;;;;;;37.10;20.60;;;-3.00;90.50;;;;;;5075129;28;20073;-91
2022/03/20 03:43:20;;;;;;;40.30;20.13;;;-3.00;90.60;;;;;;5075074;28;20032;-91
2022/03/20 03:45:47;;;;;;;44.25;22.10;;;-3.10;90.70;;;;;;5074846;28;20116;-92
2022/03/20 03:48:13;;;;;;;44.45;22.02;;;-3.10;90.50;;;;;;5074837;28;20020;-92
2022/03/20 03:50:43;;;;;;;40.30;21.65;;;-3.00;90.40;;;;;;5074844;28;20479;-92
2022/03/20 03:53:10;;;;;;;40.08;20.38;;;-3.00;90.70;;;;;;5074996;28;20031;-92
2022/03/20 03:55:36;;;;;;;39.17;21.65;;;-3.00;90.60;;;;;;5074830;28;20035;-91
2022/03/20 03:58:03;;;;;;;44.38;22.67;;;-3.00;90.40;;;;;;5074895;28;20029;-92
2022/03/20 04:00:32;;;;;;;41.45;21.20;;;-2.90;90.60;;;;;;5074602;28;20035;-92
2022/03/20 04:02:59;;;;;;;37.00;19.92;;;-2.90;90.60;;;;;;5074660;28;20025;-92
2022/03/20 04:05:25;;;;;;;43.25;22.92;;;-2.90;90.40;;;;;;5074529;28;20027;-91
2022/03/20 04:07:51;;;;;;;38.05;20.58;;;-2.80;90.50;;;;;;5074546;28;20027;-92
2022/03/20 04:10:17;;;;;;;38.95;22.02;;;-2.90;90.40;;;;;;5074531;28;20039;-92
2022/03/20 04:12:44;;;;;;;45.40;22.13;;;-2.80;90.90;;;;;;5074413;28;20119;-92
2022/03/20 04:15:14;;;;;;;43.75;23.40;;;-2.90;90.90;;;;;;5074508;28;20020;-92
2022/03/20 04:17:41;;;;;;;41.50;21.77;;;-2.90;90.90;;;;;;5074464;28;20028;-92
2022/03/20 04:20:08;;;;;;;40.65;22.55;;;-2.90;90.80;;;;;;5074277;28;20060;-92
2022/03/20 04:22:36;;;;;;;38.00;20.58;;;-2.90;90.90;;;;;;5074121;28;20115;-92
2022/03/20 04:25:02;;;;;;;39.55;21.60;;;-2.80;90.90;;;;;;5074099;28;20025;-91
2022/03/20 04:27:30;;;;;;;40.17;20.08;;;-2.80;90.80;;;;;;5074028;28;20111;-92
2022/03/20 04:29:56;;;;;;;43.25;22.00;;;-2.80;91.00;;;;;;5074091;28;20024;-92
2022/03/20 04:32:22;;;;;;;40.97;21.90;;;-2.70;90.70;;;;;;5074103;28;20029;-93
2022/03/20 04:34:48;;;;;;;45.20;21.83;;;-2.60;91.00;;;;;;5074627;28;20035;-92
2022/03/20 04:37:16;;;;;;;38.80;20.90;;;-2.50;90.80;;;;;;5074003;28;20052;-93
2022/03/20 04:39:42;;;;;;;42.10;22.58;;;-2.50;91.00;;;;;;5073791;28;20032;-92
2022/03/20 04:42:09;;;;;;;36.33;20.65;;;-2.40;91.00;;;;;;5074027;28;20539;-92
2022/03/20 04:44:38;;;;;;;38.40;20.55;;;-2.40;90.80;;;;;;5074071;28;20029;-92
2022/03/20 04:47:05;;;;;;;39.23;21.43;;;-2.20;90.60;;;;;;5074070;28;20024;-93
2022/03/20 05:00:27;;;;;;;40.55;20.95;;;-1.70;89.80;;;;;;5074992;28;20073;-93
2022/03/20 05:02:52;;;;;;;34.67;19.17;;;-1.60;90.10;;;;;;5073654;28;20405;-93
2022/03/20 05:05:18;;;;;;;44.55;22.48;;;-1.50;89.90;;;;;;5073501;28;20025;-93
2022/03/20 05:07:44;;;;;;;47.92;23.98;;;-1.50;88.30;;;;;;5073195;28;20021;-93
2022/03/20 05:15:40;;;;;;;68.57;28.30;;;-1.20;87.50;;;;;;5075125;28;20154;-93
2022/03/20 05:18:07;;;;;;;79.25;31.92;;;-1.00;87.60;;;;;;5073094;28;20469;-94
2022/03/20 05:20:33;;;;;;;113.25;40.63;;;-1.00;87.20;;;;;;5056859;28;20032;-93
2022/03/20 05:22:59;;;;;;;135.45;44.70;;;-0.90;86.40;;;;;;5056541;28;20025;-93
2022/03/20 05:25:28;;;;;;;246.82;70.43;;;-0.80;86.20;;;;;;5056490;28;20446;-93
2022/03/20 05:27:54;;;;;;;143.10;45.28;;;-0.70;86.20;;;;;;5056516;28;20031;-93
2022/03/20 05:30:20;;;;;;;136.95;49.60;;;-0.70;86.10;;;;;;5056344;28;20067;-93
2022/03/20 05:32:47;;;;;;;69.22;29.88;;;-0.60;85.50;;;;;;5056478;28;20017;-93
2022/03/20 05:35:15;;;;;;;43.97;24.73;;;-0.50;84.90;;;;;;5056850;28;20021;-93
2022/03/20 05:37:42;;;;;;;43.65;23.08;;;-0.50;84.60;;;;;;5056497;28;20020;-93
2022/03/20 05:40:08;;;;;;;38.40;20.90;;;-0.40;85.30;;;;;;5056418;28;20024;-93
2022/03/20 05:42:36;;;;;;;48.80;23.58;;;-0.30;84.70;;;;;;5056428;28;20032;-93
2022/03/20 05:45:02;;;;;;;50.75;25.75;;;-0.30;84.40;;;;;;5056352;28;20021;-94
2022/03/20 05:47:31;;;;;;;52.10;26.52;;;-0.20;84.10;;;;;;5056384;28;20032;-93
2022/03/20 05:49:58;;;;;;;49.92;26.58;;;-0.10;84.10;;;;;;5055955;28;20024;-93
2022/03/20 05:52:23;;;;;;;44.63;23.85;;;-0.10;83.80;;;;;;5056180;28;20115;-93
2022/03/20 05:54:49;;;;;;;39.95;21.95;;;0.00;83.70;;;;;;5056117;28;20143;-94
2022/03/20 05:59:59;;;;;;;41.60;23.63;;;0.10;82.00;;;;;;5074376;28;20040;-94
2022/03/20 06:02:24;;;;;;;42.47;23.10;;;0.10;82.20;;;;;;5056423;28;20021;-94
2022/03/20 06:04:51;;;;;;;42.88;23.63;;;0.10;82.20;;;;;;5056275;28;20024;-94
2022/03/20 06:07:17;;;;;;;43.60;23.95;;;0.10;82.00;;;;;;5056014;28;20423;-93
2022/03/20 06:09:42;;;;;;;46.80;23.60;;;0.20;82.70;;;;;;5056035;28;20123;-93
2022/03/20 06:12:08;;;;;;;38.65;22.38;;;0.20;82.90;;;;;;5056160;28;20025;-93
2022/03/20 06:14:35;;;;;;;48.42;24.17;;;0.30;83.00;;;;;;5056250;28;20075;-93
2022/03/20 06:17:02;;;;;;;43.28;24.52;;;0.30;82.90;;;;;;5056126;28;20020;-93
2022/03/20 06:19:28;;;;;;;42.38;23.58;;;0.50;83.00;;;;;;5069117;28;20479;-93
2022/03/20 06:21:54;;;;;;;36.13;22.35;;;0.50;82.60;;;;;;5076551;28;20075;-94
2022/03/20 06:24:20;;;;;;;38.03;21.63;;;0.60;82.70;;;;;;5076429;28;20052;-94
2022/03/20 06:26:45;;;;;;;37.00;22.10;;;0.60;83.10;;;;;;5076453;28;20029;-93
2022/03/20 06:29:11;;;;;;;37.55;21.38;;;0.70;82.50;;;;;;5076319;28;20024;-93
2022/03/20 06:31:37;;;;;;;38.35;21.55;;;0.80;82.30;;;;;;5076432;28;20350;-94
2022/03/20 06:34:04;;;;;;;41.65;23.38;;;0.80;82.00;;;;;;5076408;28;20021;-93
2022/03/20 06:36:30;;;;;;;36.60;21.70;;;0.80;82.60;;;;;;5076208;28;20020;-94
2022/03/20 06:38:56;;;;;;;36.70;21.85;;;0.90;82.70;;;;;;5076497;28;20032;-92
2022/03/20 06:41:22;;;;;;;41.63;23.13;;;0.90;82.60;;;;;;5076005;28;20021;-94
2022/03/20 06:43:48;;;;;;;39.13;22.13;;;1.00;82.80;;;;;;5076446;28;20025;-93
2022/03/20 06:46:13;;;;;;;38.42;21.67;;;1.10;82.90;;;;;;5075856;28;20402;-94
2022/03/20 06:48:39;;;;;;;39.10;21.80;;;1.10;83.10;;;;;;5076047;28;20024;-93
2022/03/20 06:51:05;;;;;;;38.70;21.40;;;1.20;83.40;;;;;;5076030;28;20024;-93
2022/03/20 06:53:32;;;;;;;40.75;21.98;;;1.30;82.50;;;;;;5076019;28;20059;-94
2022/03/20 06:55:58;;;;;;;46.33;23.40;;;1.30;82.10;;;;;;5076039;28;20024;-94
2022/03/20 06:58:24;;;;;;;35.78;20.58;;;1.40;81.70;;;;;;5076117;28;20024;-93
2022/03/20 07:00:50;;;;;;;37.53;20.88;;;1.40;82.10;;;;;;5076348;28;20031;-93
2022/03/20 07:03:16;;;;;;;37.25;20.42;;;1.40;82.20;;;;;;5076210;28;20115;-91
2022/03/20 07:05:42;;;;;;;44.65;21.63;;;1.40;82.50;;;;;;5075614;28;20079;-92
2022/03/20 07:08:08;;;;;;;40.25;20.83;;;1.50;82.40;;;;;;5075430;28;20039;-93
2022/03/20 07:10:35;;;;;;;36.22;22.17;;;1.60;82.70;;;;;;5075522;28;20025;-94
2022/03/20 07:15:48;;;;;;;37.30;21.40;;;1.60;81.70;;;;;;5076646;28;20027;-92
2022/03/20 07:18:16;;;;;;;36.65;22.10;;;1.70;81.70;;;;;;5075025;28;20045;-92
2022/03/20 07:20:44;;;;;;;42.30;22.23;;;1.70;81.00;;;;;;5075473;28;20094;-93
2022/03/20 07:23:10;;;;;;;58.10;27.98;;;1.70;81.50;;;;;;5075600;28;20032;-92
2022/03/20 07:31:05;;;;;;;72.50;34.70;;;1.70;81.70;;;;;;5076403;28;20433;-92
2022/03/20 07:33:32;;;;;;;91.10;40.80;;;1.70;81.70;;;;;;5075177;28;20020;-93
2022/03/20 07:35:59;;;;;;;47.83;26.65;;;1.70;81.50;;;;;;5075303;28;20032;-92
2022/03/20 07:38:25;;;;;;;66.43;32.47;;;1.70;81.50;;;;;;5075236;28;20095;-92
2022/03/20 07:40:50;;;;;;;48.78;26.75;;;1.80;81.40;;;;;;5075981;28;20031;-92
2022/03/20 07:43:16;;;;;;;56.95;29.90;;;1.80;81.80;;;;;;5075242;28;20036;-92
2022/03/20 07:45:42;;;;;;;64.95;32.78;;;1.80;81.50;;;;;;5074816;28;20032;-92
2022/03/20 07:48:08;;;;;;;41.80;24.08;;;1.90;81.70;;;;;;5074810;28;20035;-93
2022/03/20 07:50:35;;;;;;;38.53;22.85;;;1.90;81.50;;;;;;5074790;28;20410;-92
2022/03/20 07:53:01;;;;;;;41.97;24.63;;;2.00;81.50;;;;;;5074862;28;20048;-92
2022/03/20 07:55:28;;;;;;;49.22;27.83;;;1.90;81.10;;;;;;5074661;28;20055;-92
2022/03/20 07:57:55;;;;;;;40.83;23.55;;;1.90;81.40;;;;;;5074795;28;20116;-91
2022/03/20 08:00:21;;;;;;;43.00;24.65;;;1.90;81.50;;;;;;5074495;28;20034;-91
2022/03/20 08:02:48;;;;;;;41.80;23.92;;;2.00;82.40;;;;;;5074900;28;20037;-91
2022/03/20 08:05:13;;;;;;;39.38;24.25;;;2.10;81.60;;;;;;5074601;28;20029;-91
2022/03/20 08:07:39;;;;;;;38.13;23.10;;;2.10;81.20;;;;;;5074826;28;20025;-91
2022/03/20 08:10:06;;;;;;;41.00;24.05;;;2.20;80.70;;;;;;5074235;28;20031;-92
2022/03/20 08:12:32;;;;;;;62.78;34.22;;;2.20;80.40;;;;;;5074097;28;20035;-92
2022/03/20 08:14:58;;;;;;;42.80;25.10;;;2.30;79.80;;;;;;5074359;28;20029;-90
2022/03/20 08:17:24;;;;;;;45.03;23.92;;;2.30;79.80;;;;;;5074501;28;20024;-90
2022/03/20 08:19:49;;;;;;;44.63;24.40;;;2.30;79.70;;;;;;5073989;28;20055;-90
2022/03/20 08:22:15;;;;;;;40.65;23.45;;;2.40;80.40;;;;;;5074355;28;20032;-91
2022/03/20 08:24:42;;;;;;;58.53;31.05;;;2.50;80.00;;;;;;5074119;28;20028;-91
2022/03/20 08:27:07;;;;;;;39.13;23.52;;;2.60;80.20;;;;;;5074289;28;20025;-91
2022/03/20 08:29:33;;;;;;;41.55;24.45;;;2.70;80.00;;;;;;5074086;28;20051;-93
2022/03/20 08:31:58;;;;;;;42.35;25.38;;;2.80;79.80;;;;;;5073667;28;20020;-90
2022/03/20 08:34:24;;;;;;;61.45;28.83;;;2.80;79.80;;;;;;5073863;28;20025;-90
2022/03/20 08:36:49;;;;;;;46.30;25.67;;;2.90;80.10;;;;;;5073301;28;20020;-90
2022/03/20 08:39:15;;;;;;;42.83;23.08;;;2.90;80.10;;;;;;5073847;28;20024;-90
2022/03/20 08:41:43;;;;;;;36.08;21.33;;;3.00;79.20;;;;;;5073120;28;20032;-91
2022/03/20 08:44:08;;;;;;;39.05;20.73;;;3.10;78.80;;;;;;5074103;28;20027;-91
2022/03/20 08:46:35;;;;;;;39.22;22.75;;;3.20;78.60;;;;;;5073713;28;20033;-92
2022/03/20 08:49:05;;;;;;;33.20;19.05;;;3.20;78.20;;;;;;5073282;28;20024;-92
2022/03/20 08:51:32;;;;;;;30.83;18.83;;;3.30;77.60;;;;;;5073247;28;20031;-91
2022/03/20 08:53:59;;;;;;;40.42;23.73;;;3.40;77.60;;;;;;5073388;28;20036;-91
2022/03/20 08:56:24;;;;;;;34.67;20.80;;;3.50;77.00;;;;;;5070577;28;20029;-91
2022/03/20 08:58:51;;;;;;;34.80;21.30;;;3.50;77.10;;;;;;5073391;28;20032;-91
2022/03/20 09:01:17;;;;;;;34.03;21.40;;;3.60;76.80;;;;;;5074205;28;20102;-91
2022/03/20 09:03:44;;;;;;;29.50;18.63;;;3.60;76.60;;;;;;5073997;28;20020;-91
2022/03/20 09:06:09;;;;;;;27.45;18.08;;;3.60;76.40;;;;;;5073493;28;20028;-91
2022/03/20 09:08:36;;;;;;;29.65;16.77;;;3.70;76.10;;;;;;5073058;28;20024;-91
2022/03/20 09:11:02;;;;;;;24.77;15.45;;;3.70;75.80;;;;;;5073157;28;20044;-91
2022/03/20 09:13:28;;;;;;;26.17;15.55;;;3.70;75.90;;;;;;5073288;28;20019;-90
2022/03/20 09:18:59;;;;;;;30.13;17.00;;;3.70;76.10;;;;;;5071321;28;20032;-91
2022/03/20 09:21:23;;;;;;;60.92;29.33;;;3.80;75.50;;;;;;5074671;28;20086;-93
2022/03/20 09:23:49;;;;;;;34.13;18.25;;;3.80;75.00;;;;;;5056592;28;20459;-91
2022/03/20 09:26:15;;;;;;;26.65;17.55;;;3.80;74.90;;;;;;5056619;28;20029;-92
2022/03/20 09:28:41;;;;;;;68.40;29.60;;;3.80;75.20;;;;;;5056533;28;20021;-91
2022/03/20 09:31:08;;;;;;;52.72;27.50;;;3.90;74.00;;;;;;5056168;28;20494;-91
2022/03/20 09:33:34;;;;;;;68.93;31.48;;;3.90;74.40;;;;;;5056551;28;20020;-91
2022/03/20 09:36:00;;;;;;;46.70;23.25;;;4.00;74.50;;;;;;5056847;28;20069;-92
2022/03/20 09:38:26;;;;;;;36.50;20.23;;;4.00;73.90;;;;;;5056496;28;20020;-91
2022/03/20 09:40:52;;;;;;;91.20;37.65;;;4.00;72.90;;;;;;5056383;28;20066;-91
2022/03/20 09:43:18;;;;;;;35.78;19.48;;;4.10;73.50;;;;;;5056326;28;20486;-90
2022/03/20 09:45:44;;;;;;;30.20;15.43;;;4.10;72.50;;;;;;5056444;28;20078;-91
2022/03/20 09:48:13;;;;;;;83.50;35.45;;;4.20;72.70;;;;;;5056456;28;20051;-93
2022/03/20 09:50:43;;;;;;;38.25;19.27;;;4.20;73.00;;;;;;5057011;28;20170;-92
2022/03/20 09:53:08;;;;;;;33.92;20.35;;;4.30;71.30;;;;;;5058731;28;20032;-92
2022/03/20 09:55:34;;;;;;;20.38;13.35;;;4.30;71.60;;;;;;5060474;28;20112;-91
2022/03/20 09:58:00;;;;;;;30.60;18.00;;;4.30;71.00;;;;;;5060085;28;20021;-92
2022/03/20 10:00:26;;;;;;;44.30;26.17;;;4.40;70.80;;;;;;5060432;28;20159;-92
2022/03/20 10:02:52;;;;;;;23.08;14.18;;;4.40;70.60;;;;;;5059979;28;20074;-90
2022/03/20 10:05:23;;;;;;;51.85;22.02;;;4.40;70.80;;;;;;5060325;28;20032;-90
2022/03/20 10:07:48;;;;;;;42.92;19.33;;;4.50;70.00;;;;;;5077767;28;20067;-91
2022/03/20 10:10:28;;;;;;;23.55;14.55;;;4.50;69.90;;;;;;5060235;28;20048;-91
2022/03/20 10:12:56;;;;;;;21.05;12.85;;;4.50;70.30;;;;;;5060296;28;20025;-90
2022/03/20 10:15:27;;;;;;;36.85;19.50;;;4.50;70.90;;;;;;5059718;28;20020;-91
2022/03/20 10:18:10;;;;;;;54.03;29.20;;;4.50;71.20;;;;;;5060437;28;20028;-92
2022/03/20 10:20:42;;;;;;;28.23;17.75;;;4.50;71.20;;;;;;5060139;28;20036;-93
2022/03/20 10:23:26;;;;;;;19.63;13.10;;;4.60;71.20;;;;;;5059933;28;20021;-94
2022/03/20 10:25:53;;;;;;;14.38;11.02;;;4.60;71.20;;;;;;5060793;28;20051;-93
2022/03/20 10:28:19;;;;;;;17.92;12.30;;;4.70;71.20;;;;;;5059261;28;20028;-91
2022/03/20 10:31:01;;;;;;;16.48;10.60;;;4.60;71.60;;;;;;5059284;28;20475;-95
2022/03/20 10:33:26;;;;;;;14.27;9.23;;;4.70;69.10;;;;;;5059224;28;20025;-93
2022/03/20 10:36:20;;;;;;;12.90;9.10;;;4.80;66.80;;;;;;5058893;28;20074;-92
2022/03/20 10:38:48;;;;;;;12.57;8.88;;;4.90;66.50;;;;;;5053795;28;20021;-91
2022/03/20 10:41:17;;;;;;;13.48;9.30;;;4.90;66.40;;;;;;5059007;28;20032;-93
2022/03/20 10:43:43;;;;;;;12.95;8.40;;;4.90;66.30;;;;;;5059073;28;20028;-92
2022/03/20 10:46:16;;;;;;;47.22;23.38;;;5.00;66.20;;;;;;5059044;28;20020;-91
2022/03/20 10:48:58;;;;;;;32.95;16.65;;;5.00;65.10;;;;;;5061665;28;20025;-92
2022/03/20 10:51:39;;;;;;;20.15;11.95;;;5.10;64.70;;;;;;5058704;28;20029;-93
2022/03/20 10:54:22;;;;;;;139.43;61.10;;;5.10;63.70;;;;;;5059021;28;20139;-91
2022/03/20 10:56:53;;;;;;;132.75;53.78;;;5.10;64.40;;;;;;5057899;28;20081;-91
2022/03/20 10:59:20;;;;;;;19.58;11.52;;;5.10;64.40;;;;;;5059030;28;20020;-91
2022/03/20 11:01:47;;;;;;;15.02;8.45;;;5.20;64.20;;;;;;5042689;28;20024;-92
2022/03/20 11:04:18;;;;;;;13.82;9.50;;;5.20;63.10;;;;;;5058435;28;20020;-91
2022/03/20 11:06:46;;;;;;;12.75;8.40;;;5.20;62.90;;;;;;5059543;28;20048;-90
2022/03/20 11:09:13;;;;;;;161.63;84.22;;;5.20;63.40;;;;;;5059408;28;20356;-92
2022/03/20 11:11:47;;;;;;;21.00;12.30;;;5.20;64.70;;;;;;5058577;28;20059;-94
2022/03/20 11:14:20;;;;;;;21.65;13.52;;;5.20;64.50;;;;;;5058951;28;20482;-90
2022/03/20 11:16:52;;;;;;;33.47;19.50;;;5.20;65.20;;;;;;5058950;28;20028;-90
2022/03/20 11:19:30;;;;;;;27.08;15.48;;;5.20;63.90;;;;;;5067790;28;20479;-91
2022/03/20 11:22:06;;;;;;;12.68;8.13;;;5.30;62.50;;;;;;5077181;28;20033;-91
2022/03/20 11:24:33;;;;;;;12.55;8.52;;;5.30;61.60;;;;;;5075352;28;20467;-89
2022/03/20 11:27:02;;;;;;;14.15;7.80;;;5.30;61.90;;;;;;5075236;28;20156;-90
2022/03/20 11:29:31;;;;;;;11.60;7.53;;;5.30;61.90;;;;;;5075024;28;20042;-90
2022/03/20 11:32:01;;;;;;;9.85;6.63;;;5.30;61.70;;;;;;5075202;28;20394;-90
2022/03/20 11:34:28;;;;;;;;;;;5.20;62.10;;;;;;5076782;28;20024;-92
2022/03/20 11:37:09;;;;;;;9.27;6.57;;;5.20;61.60;;;;;;5075241;28;19926;-91
2022/03/20 11:39:59;;;;;;;14.05;8.80;;;5.20;62.20;;;;;;5073144;28;20103;-90
2022/03/20 11:42:27;;;;;;;12.43;7.10;;;5.20;63.00;;;;;;5072736;28;20025;-92
2022/03/20 11:45:11;;;;;;;9.48;6.88;;;5.30;63.50;;;;;;5073309;28;20080;-92
2022/03/20 11:47:40;;;;;;;10.18;7.22;;;5.30;63.20;;;;;;5073317;28;20063;-92
2022/03/20 11:50:16;;;;;;;16.92;7.70;;;5.30;63.30;;;;;;5072536;28;20028;-91
2022/03/20 11:53:05;;;;;;;10.18;7.65;;;5.40;63.80;;;;;;5073275;28;20021;-92
2022/03/20 11:55:57;;;;;;;11.57;7.25;;;5.40;61.40;;;;;;5074622;28;20490;-92
2022/03/20 11:58:26;;;;;;;10.18;6.03;;;5.40;61.10;;;;;;5070193;28;20071;-92
2022/03/20 12:01:03;;;;;;;14.93;8.88;;;5.40;60.00;;;;;;5074599;28;20020;-91
2022/03/20 12:04:04;;;;;;;13.63;8.57;;;5.40;60.30;;;;;;5074440;28;20478;-92
2022/03/20 12:07:08;;;;;;;12.05;8.20;;;5.40;60.80;;;;;;5074338;28;20032;-91
2022/03/20 12:09:37;;;;;;;14.60;9.55;;;5.50;61.10;;;;;;5067911;28;20052;-92
2022/03/20 12:12:40;;;;;;;10.43;7.72;;;5.50;59.50;;;;;;5074423;28;20024;-91
2022/03/20 12:15:10;;;;;;;13.52;8.63;;;5.60;59.50;;;;;;5074586;28;20017;-93
2022/03/20 12:17:55;;;;;;;;;;;5.60;59.80;;;;;;5075050;28;20021;-91
2022/03/20 12:20:49;;;;;;;11.73;7.30;;;5.70;58.00;;;;;;5075336;28;19952;-92
2022/03/20 12:23:29;;;;;;;11.93;6.78;;;5.70;58.50;;;;;;5074179;28;20035;-93
2022/03/20 12:26:17;;;;;;;10.77;7.25;;;5.80;58.50;;;;;;5074210;28;20025;-92
2022/03/20 12:28:43;;;;;;;11.88;7.25;;;5.80;58.60;;;;;;5074100;28;20032;-93
2022/03/20 12:31:08;;;;;;;10.02;5.50;;;5.90;58.50;;;;;;5073752;28;20025;-93
2022/03/20 12:33:34;;;;;;;9.32;6.18;;;6.00;57.90;;;;;;5074213;28;20029;-91
2022/03/20 12:36:00;;;;;;;11.57;5.78;;;6.10;57.90;;;;;;5073623;28;20465;-93
2022/03/20 12:38:40;;;;;;;12.75;6.00;;;6.20;57.40;;;;;;5073957;28;20039;-93
2022/03/20 12:41:18;;;;;;;9.27;5.88;;;6.30;57.00;;;;;;5074382;28;20028;-95
2022/03/20 12:43:59;;;;;;;18.10;9.52;;;6.40;56.20;;;;;;5073951;28;20055;-90
2022/03/20 12:46:26;;;;;;;9.52;6.28;;;6.60;57.70;;;;;;5074140;28;20032;-91
2022/03/20 12:48:53;;;;;;;9.07;5.53;;;6.60;56.00;;;;;;5075170;28;20020;-92
2022/03/20 12:51:32;;;;;;;7.93;5.00;;;6.70;55.00;;;;;;5055730;28;20028;-91
2022/03/20 12:54:02;;;;;;;11.90;5.22;;;6.80;55.10;;;;;;5072195;28;20032;-92
2022/03/20 12:56:28;;;;;;;9.77;5.00;;;6.90;55.20;;;;;;5072017;28;20025;-93
2022/03/20 12:58:54;;;;;;;9.20;5.47;;;6.90;56.00;;;;;;5055633;28;20541;-89
2022/03/20 13:01:20;;;;;;;9.10;5.22;;;6.90;57.00;;;;;;5071681;28;20021;-92
2022/03/20 13:03:47;;;;;;;10.15;6.75;;;7.00;56.20;;;;;;5072501;28;20020;-91
2022/03/20 13:06:12;;;;;;;10.32;6.72;;;7.20;56.60;;;;;;5072746;28;20020;-90
2022/03/20 13:08:40;;;;;;;11.90;6.60;;;7.30;55.60;;;;;;5072360;28;20052;-93
2022/03/20 13:11:57;;;;;;;12.50;5.72;;;7.40;55.10;;;;;;5071931;28;20024;-92
2022/03/20 13:14:02;;;;;;;12.25;6.20;;;7.60;54.70;;;;;;5059236;28;20441;-92
2022/03/20 13:16:29;;;;;;;9.88;5.55;;;7.90;54.80;;;;;;5072158;28;20032;-91